Su-ao, Taiwan
Current Conditions -  °F | °C
As of 9:30 PM on Sunday 23 Nov 2014 (Local Time) from RCSS Reporting Station
Few Clouds Few Clouds  
Wind Chill: 75°   Ceiling: Unl
Heat Index: 75°   Visibility: 6mi
Dew Point: 64°   Wind: 14mph
Humidity: 69%   Direction: 90°E
Pressure: 30"   Gusts: NA
Location:  24.6°N, 121.83°E
Report Text: RCSS 231330Z 09012KT 9999 FEW020 24/18 Q1016 NOSIG RMK A3002
Loading
Personal Weather Stations






























Interactive Weather Map New forecast layout! Learn more

10-Day Weather Forecast

Advertisements
Track Severe Weather on mobile